sensor_id;sensor_type;location;lat;lon;timestamp;temperature;humidity
22680;DHT22;11507;44.858;10.374;2022-11-06T00:01:11;6.90;99.90
22680;DHT22;11507;44.858;10.374;2022-11-06T00:03:38;6.80;99.90
22680;DHT22;11507;44.858;10.374;2022-11-06T00:06:07;6.70;99.90
22680;DHT22;11507;44.858;10.374;2022-11-06T00:08:53;6.60;99.90
22680;DHT22;11507;44.858;10.374;2022-11-06T00:11:19;6.40;99.90
22680;DHT22;11507;44.858;10.374;2022-11-06T00:13:45;6.30;99.90
22680;DHT22;11507;44.858;10.374;2022-11-06T00:16:18;6.20;99.90
22680;DHT22;11507;44.858;10.374;2022-11-06T00:18:44;6.10;99.90
22680;DHT22;11507;44.858;10.374;2022-11-06T00:21:12;6.10;99.90
22680;DHT22;11507;44.858;10.374;2022-11-06T00:23:40;6.10;99.90
22680;DHT22;11507;44.858;10.374;2022-11-06T00:26:17;6.10;99.90
22680;DHT22;11507;44.858;10.374;2022-11-06T00:28:45;6.00;99.90
22680;DHT22;11507;44.858;10.374;2022-11-06T00:31:12;6.00;99.90
22680;DHT22;11507;44.858;10.374;2022-11-06T00:33:38;6.10;99.90
22680;DHT22;11507;44.858;10.374;2022-11-06T00:36:05;6.20;99.90
22680;DHT22;11507;44.858;10.374;2022-11-06T00:38:31;6.30;99.90
22680;DHT22;11507;44.858;10.374;2022-11-06T00:41:02;6.40;99.90
22680;DHT22;11507;44.858;10.374;2022-11-06T00:43:28;6.40;99.90
22680;DHT22;11507;44.858;10.374;2022-11-06T00:46:03;6.40;99.90
22680;DHT22;11507;44.858;10.374;2022-11-06T00:48:31;6.50;99.90
22680;DHT22;11507;44.858;10.374;2022-11-06T00:51:10;6.60;99.90
22680;DHT22;11507;44.858;10.374;2022-11-06T00:53:36;6.60;99.90
22680;DHT22;11507;44.858;10.374;2022-11-06T00:56:03;6.60;99.90
22680;DHT22;11507;44.858;10.374;2022-11-06T00:58:29;6.80;99.90
22680;DHT22;11507;44.858;10.374;2022-11-06T01:00:55;6.80;99.90
22680;DHT22;11507;44.858;10.374;2022-11-06T01:03:21;6.90;99.90
22680;DHT22;11507;44.858;10.374;2022-11-06T01:05:46;6.90;99.90
22680;DHT22;11507;44.858;10.374;2022-11-06T01:08:12;7.00;99.90
22680;DHT22;11507;44.858;10.374;2022-11-06T01:10:38;6.90;99.90
22680;DHT22;11507;44.858;10.374;2022-11-06T01:13:04;6.80;99.90
22680;DHT22;11507;44.858;10.374;2022-11-06T01:15:30;6.70;99.90
22680;DHT22;11507;44.858;10.374;2022-11-06T01:17:56;6.80;99.90
22680;DHT22;11507;44.858;10.374;2022-11-06T01:20:22;6.80;99.90
22680;DHT22;11507;44.858;10.374;2022-11-06T01:22:47;6.90;99.90
22680;DHT22;11507;44.858;10.374;2022-11-06T01:25:13;6.80;99.90
22680;DHT22;11507;44.858;10.374;2022-11-06T01:27:39;6.90;99.90
22680;DHT22;11507;44.858;10.374;2022-11-06T01:30:05;6.90;99.90
22680;DHT22;11507;44.858;10.374;2022-11-06T01:32:33;6.90;99.90
22680;DHT22;11507;44.858;10.374;2022-11-06T01:34:59;6.90;99.90
22680;DHT22;11507;44.858;10.374;2022-11-06T01:37:24;6.80;99.90
22680;DHT22;11507;44.858;10.374;2022-11-06T01:39:50;6.70;99.90
22680;DHT22;11507;44.858;10.374;2022-11-06T01:42:18;6.70;99.90
22680;DHT22;11507;44.858;10.374;2022-11-06T01:47:29;6.60;99.90
22680;DHT22;11507;44.858;10.374;2022-11-06T01:49:56;6.50;99.90
22680;DHT22;11507;44.858;10.374;2022-11-06T01:52:24;6.40;99.90
22680;DHT22;11507;44.858;10.374;2022-11-06T01:54:55;6.30;99.90
22680;DHT22;11507;44.858;10.374;2022-11-06T01:57:22;6.20;99.90
22680;DHT22;11507;44.858;10.374;2022-11-06T01:59:49;6.20;99.90
22680;DHT22;11507;44.858;10.374;2022-11-06T02:02:17;6.10;99.90
22680;DHT22;11507;44.858;10.374;2022-11-06T02:04:44;6.00;99.90
22680;DHT22;11507;44.858;10.374;2022-11-06T02:07:13;6.00;99.90
22680;DHT22;11507;44.858;10.374;2022-11-06T02:09:39;5.90;99.90
22680;DHT22;11507;44.858;10.374;2022-11-06T02:12:09;5.90;99.90
22680;DHT22;11507;44.858;10.374;2022-11-06T02:20:09;5.60;99.90
22680;DHT22;11507;44.858;10.374;2022-11-06T02:23:05;5.50;99.90
22680;DHT22;11507;44.858;10.374;2022-11-06T02:25:48;5.40;99.90
22680;DHT22;11507;44.858;10.374;2022-11-06T02:28:24;5.40;99.90
22680;DHT22;11507;44.858;10.374;2022-11-06T02:30:52;5.60;99.90
22680;DHT22;11507;44.858;10.374;2022-11-06T02:33:32;5.70;99.90
22680;DHT22;11507;44.858;10.374;2022-11-06T02:36:08;5.70;99.90
22680;DHT22;11507;44.858;10.374;2022-11-06T02:38:42;5.70;99.90
22680;DHT22;11507;44.858;10.374;2022-11-06T02:41:18;5.80;99.90
22680;DHT22;11507;44.858;10.374;2022-11-06T02:43:49;5.80;99.90
22680;DHT22;11507;44.858;10.374;2022-11-06T02:46:21;5.80;99.90
22680;DHT22;11507;44.858;10.374;2022-11-06T02:48:55;5.70;99.90
22680;DHT22;11507;44.858;10.374;2022-11-06T02:51:25;5.60;99.90
22680;DHT22;11507;44.858;10.374;2022-11-06T02:53:55;5.40;99.90
22680;DHT22;11507;44.858;10.374;2022-11-06T02:56:27;5.20;99.90
22680;DHT22;11507;44.858;10.374;2022-11-06T02:59:03;4.90;99.90
22680;DHT22;11507;44.858;10.374;2022-11-06T03:01:45;4.80;99.90
22680;DHT22;11507;44.858;10.374;2022-11-06T03:04:22;4.70;99.90
22680;DHT22;11507;44.858;10.374;2022-11-06T03:07:01;4.70;99.90
22680;DHT22;11507;44.858;10.374;2022-11-06T03:09:31;4.60;99.90
22680;DHT22;11507;44.858;10.374;2022-11-06T03:12:08;4.70;99.90
22680;DHT22;11507;44.858;10.374;2022-11-06T03:15:10;4.80;99.90
22680;DHT22;11507;44.858;10.374;2022-11-06T03:17:55;5.00;99.90
22680;DHT22;11507;44.858;10.374;2022-11-06T03:23:08;5.10;99.90
22680;DHT22;11507;44.858;10.374;2022-11-06T03:31:10;5.00;99.90
22680;DHT22;11507;44.858;10.374;2022-11-06T03:34:05;5.00;99.90
22680;DHT22;11507;44.858;10.374;2022-11-06T03:36:46;4.90;99.90
22680;DHT22;11507;44.858;10.374;2022-11-06T03:39:20;4.80;99.90
22680;DHT22;11507;44.858;10.374;2022-11-06T03:42:01;4.70;99.90
22680;DHT22;11507;44.858;10.374;2022-11-06T03:44:30;4.50;99.90
22680;DHT22;11507;44.858;10.374;2022-11-06T03:47:19;4.50;99.90
22680;DHT22;11507;44.858;10.374;2022-11-06T03:49:50;4.50;99.90
22680;DHT22;11507;44.858;10.374;2022-11-06T03:52:23;4.60;99.90
22680;DHT22;11507;44.858;10.374;2022-11-06T03:54:59;4.60;99.90
22680;DHT22;11507;44.858;10.374;2022-11-06T04:00:15;4.60;99.90
22680;DHT22;11507;44.858;10.374;2022-11-06T04:02:51;4.50;99.90
22680;DHT22;11507;44.858;10.374;2022-11-06T04:05:43;4.40;99.90
22680;DHT22;11507;44.858;10.374;2022-11-06T04:08:11;4.40;99.90
22680;DHT22;11507;44.858;10.374;2022-11-06T04:10:59;4.30;99.90
22680;DHT22;11507;44.858;10.374;2022-11-06T04:13:45;4.30;99.90
22680;DHT22;11507;44.858;10.374;2022-11-06T04:16:36;4.20;99.90
22680;DHT22;11507;44.858;10.374;2022-11-06T04:19:23;4.20;99.90
22680;DHT22;11507;44.858;10.374;2022-11-06T04:30:34;4.10;99.90
22680;DHT22;11507;44.858;10.374;2022-11-06T04:33:16;4.10;99.90
22680;DHT22;11507;44.858;10.374;2022-11-06T04:43:49;4.30;99.90
22680;DHT22;11507;44.858;10.374;2022-11-06T04:46:22;4.10;99.90
22680;DHT22;11507;44.858;10.374;2022-11-06T04:48:51;4.00;99.90
22680;DHT22;11507;44.858;10.374;2022-11-06T04:51:21;3.90;99.90
22680;DHT22;11507;44.858;10.374;2022-11-06T04:53:50;3.90;99.90
22680;DHT22;11507;44.858;10.374;2022-11-06T04:56:24;4.10;99.90
22680;DHT22;11507;44.858;10.374;2022-11-06T04:58:51;4.10;99.90
22680;DHT22;11507;44.858;10.374;2022-11-06T05:01:17;4.20;99.90
22680;DHT22;11507;44.858;10.374;2022-11-06T05:03:45;4.20;99.90
22680;DHT22;11507;44.858;10.374;2022-11-06T05:06:11;4.10;99.90
22680;DHT22;11507;44.858;10.374;2022-11-06T05:08:37;4.00;99.90
22680;DHT22;11507;44.858;10.374;2022-11-06T05:11:05;4.00;99.90
22680;DHT22;11507;44.858;10.374;2022-11-06T05:13:31;3.90;99.90
22680;DHT22;11507;44.858;10.374;2022-11-06T05:15:57;3.90;99.90
22680;DHT22;11507;44.858;10.374;2022-11-06T05:18:24;3.80;99.90
22680;DHT22;11507;44.858;10.374;2022-11-06T05:20:51;3.70;99.90
22680;DHT22;11507;44.858;10.374;2022-11-06T05:23:40;3.70;99.90
22680;DHT22;11507;44.858;10.374;2022-11-06T05:26:06;3.70;99.90
22680;DHT22;11507;44.858;10.374;2022-11-06T05:28:33;3.60;99.90
22680;DHT22;11507;44.858;10.374;2022-11-06T05:30:59;3.60;99.90
22680;DHT22;11507;44.858;10.374;2022-11-06T05:33:26;3.60;99.90
22680;DHT22;11507;44.858;10.374;2022-11-06T05:35:52;3.60;99.90
22680;DHT22;11507;44.858;10.374;2022-11-06T05:38:18;3.70;99.90
22680;DHT22;11507;44.858;10.374;2022-11-06T05:40:44;3.70;99.90
22680;DHT22;11507;44.858;10.374;2022-11-06T05:43:11;3.70;99.90
22680;DHT22;11507;44.858;10.374;2022-11-06T05:45:37;3.70;99.90
22680;DHT22;11507;44.858;10.374;2022-11-06T05:48:03;3.70;99.90
22680;DHT22;11507;44.858;10.374;2022-11-06T05:50:29;3.70;99.90
22680;DHT22;11507;44.858;10.374;2022-11-06T05:53:02;3.70;99.90
22680;DHT22;11507;44.858;10.374;2022-11-06T05:55:28;3.70;99.90
22680;DHT22;11507;44.858;10.374;2022-11-06T05:57:54;3.70;99.90
22680;DHT22;11507;44.858;10.374;2022-11-06T06:00:20;3.70;99.90
22680;DHT22;11507;44.858;10.374;2022-11-06T06:02:46;3.70;99.90
22680;DHT22;11507;44.858;10.374;2022-11-06T06:05:11;3.90;99.90
22680;DHT22;11507;44.858;10.374;2022-11-06T06:07:39;4.00;99.90
22680;DHT22;11507;44.858;10.374;2022-11-06T06:10:06;3.90;99.90
22680;DHT22;11507;44.858;10.374;2022-11-06T06:12:33;3.90;99.90
22680;DHT22;11507;44.858;10.374;2022-11-06T06:14:59;3.80;99.90
22680;DHT22;11507;44.858;10.374;2022-11-06T06:17:25;3.80;99.90
22680;DHT22;11507;44.858;10.374;2022-11-06T06:19:50;3.80;99.90
22680;DHT22;11507;44.858;10.374;2022-11-06T06:22:18;3.90;99.90
22680;DHT22;11507;44.858;10.374;2022-11-06T06:24:45;4.20;99.90
22680;DHT22;11507;44.858;10.374;2022-11-06T06:27:11;4.40;99.90
22680;DHT22;11507;44.858;10.374;2022-11-06T06:29:36;4.50;99.90
22680;DHT22;11507;44.858;10.374;2022-11-06T06:32:02;4.50;99.90
22680;DHT22;11507;44.858;10.374;2022-11-06T06:34:28;4.50;99.90
22680;DHT22;11507;44.858;10.374;2022-11-06T06:36:54;4.50;99.90
22680;DHT22;11507;44.858;10.374;2022-11-06T06:39:20;4.50;99.90
22680;DHT22;11507;44.858;10.374;2022-11-06T06:41:46;4.50;99.90
22680;DHT22;11507;44.858;10.374;2022-11-06T06:44:14;4.50;99.90
22680;DHT22;11507;44.858;10.374;2022-11-06T06:46:40;4.50;99.90
22680;DHT22;11507;44.858;10.374;2022-11-06T06:49:06;4.50;99.90
22680;DHT22;11507;44.858;10.374;2022-11-06T06:51:32;4.60;99.90
22680;DHT22;11507;44.858;10.374;2022-11-06T06:53:58;4.70;99.90
22680;DHT22;11507;44.858;10.374;2022-11-06T06:56:25;4.90;99.90
22680;DHT22;11507;44.858;10.374;2022-11-06T06:58:54;5.30;99.90
22680;DHT22;11507;44.858;10.374;2022-11-06T07:01:20;5.60;99.90
22680;DHT22;11507;44.858;10.374;2022-11-06T07:03:47;5.80;99.90
22680;DHT22;11507;44.858;10.374;2022-11-06T07:06:12;6.10;99.90
22680;DHT22;11507;44.858;10.374;2022-11-06T07:08:39;6.30;99.90
22680;DHT22;11507;44.858;10.374;2022-11-06T07:11:08;6.50;99.90
22680;DHT22;11507;44.858;10.374;2022-11-06T07:13:35;6.70;99.90
22680;DHT22;11507;44.858;10.374;2022-11-06T07:16:05;6.80;99.90
22680;DHT22;11507;44.858;10.374;2022-11-06T07:18:31;6.90;99.90
22680;DHT22;11507;44.858;10.374;2022-11-06T07:20:57;7.10;99.90
22680;DHT22;11507;44.858;10.374;2022-11-06T07:23:23;7.20;99.90
22680;DHT22;11507;44.858;10.374;2022-11-06T07:25:52;7.30;99.90
22680;DHT22;11507;44.858;10.374;2022-11-06T07:28:19;7.40;99.90
22680;DHT22;11507;44.858;10.374;2022-11-06T07:30:46;7.50;99.90
22680;DHT22;11507;44.858;10.374;2022-11-06T07:33:12;7.70;99.90
22680;DHT22;11507;44.858;10.374;2022-11-06T07:35:37;7.90;99.90
22680;DHT22;11507;44.858;10.374;2022-11-06T07:38:05;8.00;99.90
22680;DHT22;11507;44.858;10.374;2022-11-06T07:40:32;8.20;99.90
22680;DHT22;11507;44.858;10.374;2022-11-06T07:43:05;8.30;99.90
22680;DHT22;11507;44.858;10.374;2022-11-06T07:45:32;8.40;99.90
22680;DHT22;11507;44.858;10.374;2022-11-06T07:47:58;8.50;99.90
22680;DHT22;11507;44.858;10.374;2022-11-06T07:50:26;8.60;99.90
22680;DHT22;11507;44.858;10.374;2022-11-06T07:52:53;8.70;99.90
22680;DHT22;11507;44.858;10.374;2022-11-06T07:55:19;8.90;99.90
22680;DHT22;11507;44.858;10.374;2022-11-06T07:57:45;9.00;99.90
22680;DHT22;11507;44.858;10.374;2022-11-06T08:00:11;9.10;99.90
22680;DHT22;11507;44.858;10.374;2022-11-06T08:02:38;9.20;99.90
22680;DHT22;11507;44.858;10.374;2022-11-06T08:05:04;9.40;99.90
22680;DHT22;11507;44.858;10.374;2022-11-06T08:07:31;9.60;99.90
22680;DHT22;11507;44.858;10.374;2022-11-06T08:09:57;9.80;99.90
22680;DHT22;11507;44.858;10.374;2022-11-06T08:12:24;9.90;99.90
22680;DHT22;11507;44.858;10.374;2022-11-06T08:14:50;10.30;99.90
22680;DHT22;11507;44.858;10.374;2022-11-06T08:17:15;10.50;99.90
22680;DHT22;11507;44.858;10.374;2022-11-06T08:19:41;10.80;99.90
22680;DHT22;11507;44.858;10.374;2022-11-06T08:22:07;11.10;99.90
22680;DHT22;11507;44.858;10.374;2022-11-06T08:24:34;11.50;99.90
22680;DHT22;11507;44.858;10.374;2022-11-06T08:26:59;11.90;99.90
22680;DHT22;11507;44.858;10.374;2022-11-06T08:29:27;12.00;99.90
22680;DHT22;11507;44.858;10.374;2022-11-06T08:31:53;11.90;99.90
22680;DHT22;11507;44.858;10.374;2022-11-06T08:34:19;12.10;99.90
22680;DHT22;11507;44.858;10.374;2022-11-06T08:36:45;12.30;99.90
22680;DHT22;11507;44.858;10.374;2022-11-06T08:39:12;12.60;99.90
22680;DHT22;11507;44.858;10.374;2022-11-06T08:41:41;13.10;99.90
22680;DHT22;11507;44.858;10.374;2022-11-06T08:44:07;13.20;99.90
22680;DHT22;11507;44.858;10.374;2022-11-06T08:46:33;13.00;99.90
22680;DHT22;11507;44.858;10.374;2022-11-06T08:48:59;12.70;99.90
22680;DHT22;11507;44.858;10.374;2022-11-06T08:51:25;12.60;99.90
22680;DHT22;11507;44.858;10.374;2022-11-06T08:53:51;12.60;99.90
22680;DHT22;11507;44.858;10.374;2022-11-06T08:56:17;12.60;99.90
22680;DHT22;11507;44.858;10.374;2022-11-06T08:58:42;12.50;99.90
22680;DHT22;11507;44.858;10.374;2022-11-06T09:01:09;12.60;99.90
22680;DHT22;11507;44.858;10.374;2022-11-06T09:03:35;12.90;99.90
22680;DHT22;11507;44.858;10.374;2022-11-06T09:06:00;13.20;99.90
22680;DHT22;11507;44.858;10.374;2022-11-06T09:08:26;13.60;99.90
22680;DHT22;11507;44.858;10.374;2022-11-06T09:10:53;14.20;99.90
22680;DHT22;11507;44.858;10.374;2022-11-06T09:13:19;14.90;99.90
22680;DHT22;11507;44.858;10.374;2022-11-06T09:15:45;15.60;99.90
22680;DHT22;11507;44.858;10.374;2022-11-06T09:18:10;16.30;99.90
22680;DHT22;11507;44.858;10.374;2022-11-06T09:20:36;17.20;99.90
22680;DHT22;11507;44.858;10.374;2022-11-06T09:23:05;18.10;99.90
22680;DHT22;11507;44.858;10.374;2022-11-06T09:25:31;19.00;98.80
22680;DHT22;11507;44.858;10.374;2022-11-06T09:27:57;19.40;95.50
22680;DHT22;11507;44.858;10.374;2022-11-06T09:30:25;19.90;93.60
22680;DHT22;11507;44.858;10.374;2022-11-06T09:33:00;20.10;93.40
22680;DHT22;11507;44.858;10.374;2022-11-06T09:35:28;20.50;91.60
22680;DHT22;11507;44.858;10.374;2022-11-06T09:38:03;21.30;92.60
22680;DHT22;11507;44.858;10.374;2022-11-06T09:45:40;21.90;85.20
22680;DHT22;11507;44.858;10.374;2022-11-06T09:50:43;22.40;82.60
22680;DHT22;11507;44.858;10.374;2022-11-06T09:54:08;22.40;81.10
22680;DHT22;11507;44.858;10.374;2022-11-06T09:56:09;22.30;81.30
22680;DHT22;11507;44.858;10.374;2022-11-06T09:58:39;22.40;81.00
22680;DHT22;11507;44.858;10.374;2022-11-06T10:01:23;22.50;82.10
22680;DHT22;11507;44.858;10.374;2022-11-06T10:03:58;22.80;79.70
22680;DHT22;11507;44.858;10.374;2022-11-06T10:06:25;23.60;84.20
22680;DHT22;11507;44.858;10.374;2022-11-06T10:08:55;24.50;84.00
22680;DHT22;11507;44.858;10.374;2022-11-06T10:17:39;25.70;70.20
22680;DHT22;11507;44.858;10.374;2022-11-06T10:20:32;26.20;70.70
22680;DHT22;11507;44.858;10.374;2022-11-06T10:23:18;26.20;72.50
22680;DHT22;11507;44.858;10.374;2022-11-06T10:25:50;26.90;68.60
22680;DHT22;11507;44.858;10.374;2022-11-06T10:28:30;26.90;60.30
22680;DHT22;11507;44.858;10.374;2022-11-06T10:31:50;26.00;63.10
22680;DHT22;11507;44.858;10.374;2022-11-06T10:34:48;26.00;67.00
22680;DHT22;11507;44.858;10.374;2022-11-06T10:37:22;26.30;64.60
22680;DHT22;11507;44.858;10.374;2022-11-06T10:39:50;26.50;65.50
22680;DHT22;11507;44.858;10.374;2022-11-06T10:42:23;27.10;63.40
22680;DHT22;11507;44.858;10.374;2022-11-06T10:45:21;27.50;61.60
22680;DHT22;11507;44.858;10.374;2022-11-06T10:47:54;28.10;58.40
22680;DHT22;11507;44.858;10.374;2022-11-06T10:50:25;27.50;58.30
22680;DHT22;11507;44.858;10.374;2022-11-06T10:53:13;27.80;59.20
22680;DHT22;11507;44.858;10.374;2022-11-06T10:58:32;26.40;60.40
22680;DHT22;11507;44.858;10.374;2022-11-06T11:01:03;26.50;61.40
22680;DHT22;11507;44.858;10.374;2022-11-06T11:03:33;27.00;61.70
22680;DHT22;11507;44.858;10.374;2022-11-06T11:06:00;27.10;59.10
22680;DHT22;11507;44.858;10.374;2022-11-06T11:08:34;26.30;58.60
22680;DHT22;11507;44.858;10.374;2022-11-06T11:11:22;25.70;60.90
22680;DHT22;11507;44.858;10.374;2022-11-06T11:13:49;25.40;62.20
22680;DHT22;11507;44.858;10.374;2022-11-06T11:16:33;25.20;61.30
22680;DHT22;11507;44.858;10.374;2022-11-06T11:21:57;23.90;63.80
22680;DHT22;11507;44.858;10.374;2022-11-06T11:24:24;23.80;67.60
22680;DHT22;11507;44.858;10.374;2022-11-06T11:26:53;24.20;65.20
22680;DHT22;11507;44.858;10.374;2022-11-06T11:29:24;25.00;65.60
22680;DHT22;11507;44.858;10.374;2022-11-06T11:31:53;25.50;61.90
22680;DHT22;11507;44.858;10.374;2022-11-06T11:34:23;25.50;60.90
22680;DHT22;11507;44.858;10.374;2022-11-06T11:36:51;25.40;62.60
22680;DHT22;11507;44.858;10.374;2022-11-06T11:39:21;25.50;62.90
22680;DHT22;11507;44.858;10.374;2022-11-06T11:41:51;25.30;60.40
22680;DHT22;11507;44.858;10.374;2022-11-06T11:44:18;25.20;62.40
22680;DHT22;11507;44.858;10.374;2022-11-06T11:46:49;25.80;64.00
22680;DHT22;11507;44.858;10.374;2022-11-06T11:49:30;26.10;59.50
22680;DHT22;11507;44.858;10.374;2022-11-06T11:52:02;26.40;60.40
22680;DHT22;11507;44.858;10.374;2022-11-06T11:54:33;27.30;60.10
22680;DHT22;11507;44.858;10.374;2022-11-06T11:57:10;28.50;61.00
22680;DHT22;11507;44.858;10.374;2022-11-06T11:59:55;29.30;57.20
22680;DHT22;11507;44.858;10.374;2022-11-06T12:02:39;29.90;56.40
22680;DHT22;11507;44.858;10.374;2022-11-06T12:05:26;30.60;56.50
22680;DHT22;11507;44.858;10.374;2022-11-06T12:07:55;30.20;54.30
22680;DHT22;11507;44.858;10.374;2022-11-06T12:10:41;29.80;55.50
22680;DHT22;11507;44.858;10.374;2022-11-06T12:13:19;28.80;55.60
22680;DHT22;11507;44.858;10.374;2022-11-06T12:18:47;27.40;57.40
22680;DHT22;11507;44.858;10.374;2022-11-06T12:21:22;26.80;58.40
22680;DHT22;11507;44.858;10.374;2022-11-06T12:24:00;26.30;58.50
22680;DHT22;11507;44.858;10.374;2022-11-06T12:29:32;26.90;61.70
22680;DHT22;11507;44.858;10.374;2022-11-06T12:34:51;27.90;59.50
22680;DHT22;11507;44.858;10.374;2022-11-06T12:40:18;28.80;58.40
22680;DHT22;11507;44.858;10.374;2022-11-06T12:43:04;29.10;58.60
22680;DHT22;11507;44.858;10.374;2022-11-06T12:50:59;27.80;56.00
22680;DHT22;11507;44.858;10.374;2022-11-06T12:56:30;26.10;58.60
22680;DHT22;11507;44.858;10.374;2022-11-06T12:59:10;26.10;59.70
22680;DHT22;11507;44.858;10.374;2022-11-06T13:01:45;25.60;59.50
22680;DHT22;11507;44.858;10.374;2022-11-06T13:04:30;25.60;60.10
22680;DHT22;11507;44.858;10.374;2022-11-06T13:10:08;24.60;62.00
22680;DHT22;11507;44.858;10.374;2022-11-06T13:16:03;23.30;66.60
22680;DHT22;11507;44.858;10.374;2022-11-06T13:18:41;23.00;67.50
22680;DHT22;11507;44.858;10.374;2022-11-06T13:24:05;22.40;71.30
22680;DHT22;11507;44.858;10.374;2022-11-06T13:26:41;21.90;71.10
22680;DHT22;11507;44.858;10.374;2022-11-06T13:29:13;21.30;73.60
22680;DHT22;11507;44.858;10.374;2022-11-06T13:31:58;21.00;75.70
22680;DHT22;11507;44.858;10.374;2022-11-06T13:34:29;20.30;76.60
22680;DHT22;11507;44.858;10.374;2022-11-06T13:36:56;20.00;78.90
22680;DHT22;11507;44.858;10.374;2022-11-06T13:39:30;19.80;80.30
22680;DHT22;11507;44.858;10.374;2022-11-06T13:41:57;19.70;82.00
22680;DHT22;11507;44.858;10.374;2022-11-06T13:44:25;19.80;81.80
22680;DHT22;11507;44.858;10.374;2022-11-06T13:52:33;19.50;82.70
22680;DHT22;11507;44.858;10.374;2022-11-06T14:00:20;19.20;88.50
22680;DHT22;11507;44.858;10.374;2022-11-06T14:02:59;19.30;87.80
22680;DHT22;11507;44.858;10.374;2022-11-06T14:08:10;19.20;89.60
22680;DHT22;11507;44.858;10.374;2022-11-06T14:10:47;19.30;89.90
22680;DHT22;11507;44.858;10.374;2022-11-06T14:13:15;19.40;89.60
22680;DHT22;11507;44.858;10.374;2022-11-06T14:15:41;19.20;89.50
22680;DHT22;11507;44.858;10.374;2022-11-06T14:18:22;19.10;90.10
22680;DHT22;11507;44.858;10.374;2022-11-06T14:20:48;19.10;90.70
22680;DHT22;11507;44.858;10.374;2022-11-06T14:25:59;19.00;90.50
22680;DHT22;11507;44.858;10.374;2022-11-06T14:28:42;18.90;90.40
22680;DHT22;11507;44.858;10.374;2022-11-06T14:31:09;18.80;90.10
22680;DHT22;11507;44.858;10.374;2022-11-06T14:38:49;18.60;91.30
22680;DHT22;11507;44.858;10.374;2022-11-06T14:44:23;18.40;90.70
22680;DHT22;11507;44.858;10.374;2022-11-06T14:46:55;18.30;92.00
22680;DHT22;11507;44.858;10.374;2022-11-06T14:52:14;18.00;94.10
22680;DHT22;11507;44.858;10.374;2022-11-06T14:54:57;17.80;95.60
22680;DHT22;11507;44.858;10.374;2022-11-06T14:57:41;17.60;96.90
22680;DHT22;11507;44.858;10.374;2022-11-06T15:00:36;17.50;97.10
22680;DHT22;11507;44.858;10.374;2022-11-06T15:03:03;17.20;99.00
22680;DHT22;11507;44.858;10.374;2022-11-06T15:05:31;16.90;99.90
22680;DHT22;11507;44.858;10.374;2022-11-06T15:08:02;16.80;99.90
22680;DHT22;11507;44.858;10.374;2022-11-06T15:10:55;16.60;99.90
22680;DHT22;11507;44.858;10.374;2022-11-06T15:13:24;16.50;99.90
22680;DHT22;11507;44.858;10.374;2022-11-06T15:16:01;16.30;99.90
22680;DHT22;11507;44.858;10.374;2022-11-06T15:18:29;16.20;99.90
22680;DHT22;11507;44.858;10.374;2022-11-06T15:21:07;16.10;99.90
22680;DHT22;11507;44.858;10.374;2022-11-06T15:24:03;16.00;99.90
22680;DHT22;11507;44.858;10.374;2022-11-06T15:26:47;15.80;99.90
22680;DHT22;11507;44.858;10.374;2022-11-06T15:31:46;15.50;99.90
22680;DHT22;11507;44.858;10.374;2022-11-06T15:34:33;15.40;99.90
22680;DHT22;11507;44.858;10.374;2022-11-06T15:37:31;15.30;99.90
22680;DHT22;11507;44.858;10.374;2022-11-06T15:40:00;15.10;99.90
22680;DHT22;11507;44.858;10.374;2022-11-06T15:42:32;14.90;99.90
22680;DHT22;11507;44.858;10.374;2022-11-06T15:45:26;14.70;99.90
22680;DHT22;11507;44.858;10.374;2022-11-06T15:47:59;14.50;99.90
22680;DHT22;11507;44.858;10.374;2022-11-06T15:53:21;14.20;99.90
22680;DHT22;11507;44.858;10.374;2022-11-06T16:00:44;13.70;99.90
22680;DHT22;11507;44.858;10.374;2022-11-06T16:03:16;13.60;99.90
22680;DHT22;11507;44.858;10.374;2022-11-06T16:05:42;13.40;99.90
22680;DHT22;11507;44.858;10.374;2022-11-06T16:08:11;13.20;99.90
22680;DHT22;11507;44.858;10.374;2022-11-06T16:10:38;13.10;99.90
22680;DHT22;11507;44.858;10.374;2022-11-06T16:13:04;13.00;99.90
22680;DHT22;11507;44.858;10.374;2022-11-06T16:15:46;12.90;99.90
22680;DHT22;11507;44.858;10.374;2022-11-06T16:18:38;12.70;99.90
22680;DHT22;11507;44.858;10.374;2022-11-06T16:21:12;12.70;99.90
22680;DHT22;11507;44.858;10.374;2022-11-06T16:23:43;12.50;99.90
22680;DHT22;11507;44.858;10.374;2022-11-06T16:26:14;12.40;99.90
22680;DHT22;11507;44.858;10.374;2022-11-06T16:28:46;12.20;99.90
22680;DHT22;11507;44.858;10.374;2022-11-06T16:31:27;12.10;99.90
22680;DHT22;11507;44.858;10.374;2022-11-06T16:33:55;11.90;99.90
22680;DHT22;11507;44.858;10.374;2022-11-06T16:36:22;11.80;99.90
22680;DHT22;11507;44.858;10.374;2022-11-06T16:38:48;11.70;99.90
22680;DHT22;11507;44.858;10.374;2022-11-06T16:41:18;11.60;99.90
22680;DHT22;11507;44.858;10.374;2022-11-06T16:44:23;11.50;99.90
22680;DHT22;11507;44.858;10.374;2022-11-06T16:47:17;11.40;99.90
22680;DHT22;11507;44.858;10.374;2022-11-06T16:49:48;11.30;99.90
22680;DHT22;11507;44.858;10.374;2022-11-06T16:52:40;11.40;99.90
22680;DHT22;11507;44.858;10.374;2022-11-06T16:57:45;11.20;99.90
22680;DHT22;11507;44.858;10.374;2022-11-06T17:03:04;11.10;99.90
22680;DHT22;11507;44.858;10.374;2022-11-06T17:05:36;11.00;99.90
22680;DHT22;11507;44.858;10.374;2022-11-06T17:08:07;11.10;99.90
22680;DHT22;11507;44.858;10.374;2022-11-06T17:13:12;10.90;99.90
22680;DHT22;11507;44.858;10.374;2022-11-06T17:15:40;10.90;99.90
22680;DHT22;11507;44.858;10.374;2022-11-06T17:18:08;10.80;99.90
22680;DHT22;11507;44.858;10.374;2022-11-06T17:20:35;10.80;99.90
22680;DHT22;11507;44.858;10.374;2022-11-06T17:23:01;10.70;99.90
22680;DHT22;11507;44.858;10.374;2022-11-06T17:25:29;10.60;99.90
22680;DHT22;11507;44.858;10.374;2022-11-06T17:27:55;10.50;99.90
22680;DHT22;11507;44.858;10.374;2022-11-06T17:30:20;10.40;99.90
22680;DHT22;11507;44.858;10.374;2022-11-06T17:32:47;10.30;99.90
22680;DHT22;11507;44.858;10.374;2022-11-06T17:35:13;10.20;99.90
22680;DHT22;11507;44.858;10.374;2022-11-06T17:37:38;10.10;99.90
22680;DHT22;11507;44.858;10.374;2022-11-06T17:40:05;10.10;99.90
22680;DHT22;11507;44.858;10.374;2022-11-06T17:42:31;10.00;99.90
22680;DHT22;11507;44.858;10.374;2022-11-06T17:44:58;9.90;99.90
22680;DHT22;11507;44.858;10.374;2022-11-06T17:47:24;9.70;99.90
22680;DHT22;11507;44.858;10.374;2022-11-06T17:49:49;9.70;99.90
22680;DHT22;11507;44.858;10.374;2022-11-06T17:52:16;9.60;99.90
22680;DHT22;11507;44.858;10.374;2022-11-06T17:54:41;9.50;99.90
22680;DHT22;11507;44.858;10.374;2022-11-06T17:57:08;9.40;99.90
22680;DHT22;11507;44.858;10.374;2022-11-06T17:59:34;9.40;99.90